Time;durP1;ratioP1;P1;durP2;ratioP2;P2;SDS_P1;SDS_P2;PMS_P1;PMS_P2;Temp;Humidity;BMP_temperature;BMP_pressure;BME280_temperature;BME280_humidity;BME280_pressure;Samples;Min_cycle;Max_cycle;Signal;HPM_P1;HPM_P2
2021/09/09 00:01:18;;;;;;;13.00;11.30;;;18.60;99.90;;;;;;4972676;28;20194;-62
2021/09/09 00:03:43;;;;;;;12.20;11.10;;;18.60;99.90;;;;;;4972473;28;20196;-62
2021/09/09 00:06:09;;;;;;;12.47;10.83;;;18.60;99.90;;;;;;4971635;28;20298;-62
2021/09/09 00:08:35;;;;;;;12.13;11.03;;;18.60;99.90;;;;;;4972550;28;20188;-62
2021/09/09 00:11:00;;;;;;;11.83;10.63;;;18.50;99.90;;;;;;4972342;28;20183;-62
2021/09/09 00:13:26;;;;;;;13.40;12.10;;;18.40;99.90;;;;;;4972684;28;20611;-62
2021/09/09 00:15:51;;;;;;;13.03;11.73;;;18.30;99.90;;;;;;4972694;28;20705;-62
2021/09/09 00:18:17;;;;;;;12.77;11.63;;;18.30;99.90;;;;;;4972417;28;20626;-62
2021/09/09 00:20:42;;;;;;;12.53;11.43;;;18.30;99.90;;;;;;4972622;28;20279;-62
2021/09/09 00:23:08;;;;;;;11.67;10.57;;;18.30;99.90;;;;;;4972876;28;20169;-62
2021/09/09 00:25:33;;;;;;;12.93;11.37;;;18.30;99.90;;;;;;4972778;28;20180;-62
2021/09/09 00:27:59;;;;;;;12.40;11.07;;;18.30;99.90;;;;;;4972447;28;20212;-62
2021/09/09 00:30:24;;;;;;;12.80;11.70;;;18.30;99.90;;;;;;4972322;28;20172;-62
2021/09/09 00:32:50;;;;;;;11.33;10.40;;;18.20;99.90;;;;;;4972471;28;20177;-62
2021/09/09 00:35:16;;;;;;;13.57;12.27;;;18.30;99.90;;;;;;4972843;28;20164;-62
2021/09/09 00:37:41;;;;;;;11.63;10.63;;;18.20;99.90;;;;;;4972628;28;20208;-62
2021/09/09 00:40:08;;;;;;;12.13;11.00;;;18.20;99.90;;;;;;4971937;28;20200;-62
2021/09/09 00:42:34;;;;;;;13.87;12.67;;;18.10;99.90;;;;;;4972485;28;20208;-62
2021/09/09 00:44:59;;;;;;;13.20;12.00;;;18.10;99.90;;;;;;4972788;28;20836;-62
2021/09/09 00:47:25;;;;;;;13.27;12.07;;;18.10;99.90;;;;;;4973656;28;20204;-62
2021/09/09 00:49:50;;;;;;;12.07;10.97;;;18.10;99.90;;;;;;4975366;28;20200;-62
2021/09/09 00:52:16;;;;;;;12.80;11.50;;;18.00;99.90;;;;;;4976004;28;20175;-62
2021/09/09 00:54:43;;;;;;;11.80;10.80;;;18.00;99.90;;;;;;4976043;28;20176;-61
2021/09/09 00:57:09;;;;;;;11.77;10.80;;;18.00;99.90;;;;;;4975608;28;20188;-62
2021/09/09 00:59:35;;;;;;;17.10;11.73;;;18.00;99.90;;;;;;4975403;28;20450;-62
2021/09/09 01:02:04;;;;;;;12.83;11.53;;;17.90;99.90;;;;;;4975290;28;20191;-62
2021/09/09 01:04:30;;;;;;;11.50;10.60;;;17.90;99.90;;;;;;4975563;28;20443;-62
2021/09/09 01:06:56;;;;;;;13.27;12.13;;;17.90;99.90;;;;;;4975467;28;20587;-62
2021/09/09 01:09:23;;;;;;;13.87;12.43;;;17.90;99.90;;;;;;4975425;28;20192;-64
2021/09/09 01:11:49;;;;;;;12.87;11.67;;;17.90;99.90;;;;;;4975326;28;20866;-63
2021/09/09 01:14:17;;;;;;;11.07;10.07;;;17.90;99.90;;;;;;4975383;28;20439;-63
2021/09/09 01:16:43;;;;;;;12.30;11.20;;;17.90;99.90;;;;;;4975271;28;20999;-63
2021/09/09 01:19:10;;;;;;;13.03;11.20;;;17.90;99.90;;;;;;4974859;28;20471;-64
2021/09/09 01:21:36;;;;;;;12.00;11.00;;;17.90;99.90;;;;;;4970906;28;20946;-63
2021/09/09 01:24:07;;;;;;;15.80;11.70;;;18.00;99.90;;;;;;4956108;29;20483;-63
2021/09/09 01:26:47;;;;;;;13.30;12.00;;;17.90;99.90;;;;;;4969535;28;20482;-63
2021/09/09 01:29:13;;;;;;;12.17;11.00;;;17.80;99.90;;;;;;4974941;28;20467;-63
2021/09/09 01:31:38;;;;;;;12.20;11.07;;;17.90;99.90;;;;;;4975231;28;20943;-63
2021/09/09 01:34:04;;;;;;;13.10;11.70;;;17.80;99.90;;;;;;4974959;28;20546;-63
2021/09/09 01:36:29;;;;;;;12.47;11.37;;;17.80;99.90;;;;;;4974438;28;20188;-63
2021/09/09 01:38:55;;;;;;;12.40;11.30;;;17.80;99.90;;;;;;4974350;28;20208;-63
2021/09/09 01:41:20;;;;;;;12.33;11.30;;;17.80;99.90;;;;;;4975131;28;20191;-63
2021/09/09 01:43:46;;;;;;;12.53;11.53;;;17.80;99.90;;;;;;4975063;28;20199;-63
2021/09/09 01:46:11;;;;;;;12.60;11.40;;;17.80;99.90;;;;;;4970354;28;20185;-63
2021/09/09 01:48:37;;;;;;;12.97;11.67;;;17.80;99.90;;;;;;4971180;28;20196;-63
2021/09/09 01:51:02;;;;;;;13.60;12.23;;;17.70;99.90;;;;;;4975170;28;20665;-63
2021/09/09 01:53:28;;;;;;;12.50;11.30;;;17.70;99.90;;;;;;4974823;28;20191;-63
2021/09/09 01:55:53;;;;;;;12.60;11.50;;;17.70;99.90;;;;;;4974539;28;20177;-63
2021/09/09 01:58:19;;;;;;;13.57;12.27;;;17.60;99.90;;;;;;4973482;28;20204;-63
2021/09/09 02:00:44;;;;;;;11.97;10.80;;;17.70;99.90;;;;;;4974040;28;20176;-63
2021/09/09 02:03:10;;;;;;;11.93;10.70;;;17.60;99.90;;;;;;4974520;28;20184;-63
2021/09/09 02:05:35;;;;;;;11.77;10.77;;;17.60;99.90;;;;;;4974312;28;20190;-63
2021/09/09 02:08:01;;;;;;;12.00;10.87;;;17.70;99.90;;;;;;4974385;28;20279;-64
2021/09/09 02:10:26;;;;;;;11.83;10.83;;;17.70;99.90;;;;;;4974042;28;20183;-63
2021/09/09 02:12:52;;;;;;;12.10;11.00;;;17.60;99.90;;;;;;4974224;28;20275;-63
2021/09/09 02:15:18;;;;;;;11.70;10.80;;;17.60;99.90;;;;;;4974099;28;20191;-63
2021/09/09 02:17:43;;;;;;;12.60;11.50;;;17.50;99.90;;;;;;4974461;28;20194;-63
2021/09/09 02:20:09;;;;;;;13.67;12.40;;;17.50;99.90;;;;;;4973801;28;20681;-63
2021/09/09 02:22:35;;;;;;;12.00;11.00;;;17.50;99.90;;;;;;4974157;28;20665;-61
2021/09/09 02:25:01;;;;;;;13.10;12.00;;;17.50;99.90;;;;;;4974230;28;20431;-63
2021/09/09 02:27:27;;;;;;;13.37;11.87;;;17.40;99.90;;;;;;4973806;28;20837;-63
2021/09/09 02:29:53;;;;;;;11.67;10.70;;;17.40;99.90;;;;;;4973763;28;20254;-63
2021/09/09 02:32:19;;;;;;;12.13;11.07;;;17.40;99.90;;;;;;4974154;28;20483;-63
2021/09/09 02:34:44;;;;;;;12.13;11.03;;;17.40;99.90;;;;;;4973964;28;20700;-63
2021/09/09 02:37:10;;;;;;;12.93;11.73;;;17.40;99.90;;;;;;4973354;28;20172;-63
2021/09/09 02:39:40;;;;;;;12.30;11.23;;;17.30;99.90;;;;;;4973451;28;20211;-63
2021/09/09 02:42:05;;;;;;;12.63;11.53;;;17.30;99.90;;;;;;4973991;28;20176;-63
2021/09/09 02:44:31;;;;;;;13.80;12.37;;;17.30;99.90;;;;;;4973710;28;20436;-63
2021/09/09 02:46:56;;;;;;;13.90;12.60;;;17.30;99.90;;;;;;4973625;28;20204;-61
2021/09/09 02:49:22;;;;;;;13.67;12.30;;;17.30;99.90;;;;;;4973649;28;20283;-61
2021/09/09 02:51:47;;;;;;;13.57;12.47;;;17.20;99.90;;;;;;4973720;28;20418;-62
2021/09/09 02:54:13;;;;;;;13.33;12.03;;;17.20;99.90;;;;;;4973279;28;20176;-61
2021/09/09 02:56:38;;;;;;;13.10;11.93;;;17.20;99.90;;;;;;4973699;28;20179;-61
2021/09/09 02:59:04;;;;;;;13.57;12.47;;;17.20;99.90;;;;;;4972861;28;20204;-61
2021/09/09 03:01:29;;;;;;;14.00;12.70;;;17.20;99.90;;;;;;4973311;28;20204;-61
2021/09/09 03:03:55;;;;;;;13.87;12.47;;;17.20;99.90;;;;;;4973536;28;20184;-61
2021/09/09 03:06:20;;;;;;;13.23;11.87;;;17.20;99.90;;;;;;4973302;28;20256;-62
2021/09/09 03:08:46;;;;;;;14.27;12.87;;;17.20;99.90;;;;;;4972878;28;20304;-61
2021/09/09 03:11:11;;;;;;;13.70;12.60;;;17.20;99.90;;;;;;4973385;28;20634;-61
2021/09/09 03:13:37;;;;;;;12.00;10.87;;;17.20;99.90;;;;;;4973503;28;20259;-62
2021/09/09 03:16:02;;;;;;;13.77;12.57;;;17.10;99.90;;;;;;4973657;28;20517;-62
2021/09/09 03:18:28;;;;;;;12.90;11.80;;;17.10;99.90;;;;;;4972799;28;20303;-62
2021/09/09 03:20:54;;;;;;;13.10;12.00;;;17.10;99.90;;;;;;4973532;28;20259;-64
2021/09/09 03:23:20;;;;;;;12.83;11.83;;;17.10;99.90;;;;;;4973339;28;20172;-64
2021/09/09 03:25:46;;;;;;;13.50;12.40;;;17.10;99.90;;;;;;4973397;28;20445;-63
2021/09/09 03:28:11;;;;;;;12.07;10.97;;;17.10;99.90;;;;;;4973190;28;20689;-62
2021/09/09 03:30:37;;;;;;;13.00;11.80;;;17.20;99.90;;;;;;4972643;28;20626;-61
2021/09/09 03:33:03;;;;;;;14.63;13.13;;;17.10;99.90;;;;;;4973248;28;20183;-61
2021/09/09 03:35:28;;;;;;;11.97;11.07;;;17.10;99.90;;;;;;4972882;28;20259;-61
2021/09/09 03:37:54;;;;;;;11.97;10.87;;;17.10;99.90;;;;;;4972913;28;20449;-61
2021/09/09 03:40:20;;;;;;;14.17;12.73;;;17.10;99.90;;;;;;4972967;28;20626;-63
2021/09/09 03:42:46;;;;;;;14.40;12.87;;;17.10;99.90;;;;;;4973240;28;20551;-63
2021/09/09 03:45:11;;;;;;;12.83;11.67;;;17.00;99.90;;;;;;4972907;28;20447;-63
2021/09/09 03:47:37;;;;;;;13.33;12.10;;;17.00;99.90;;;;;;4972734;28;20212;-63
2021/09/09 03:50:03;;;;;;;12.83;11.73;;;17.10;99.90;;;;;;4972759;28;20287;-63
2021/09/09 03:52:29;;;;;;;12.23;10.90;;;17.00;99.90;;;;;;4972617;28;20535;-63
2021/09/09 03:54:54;;;;;;;12.10;11.20;;;17.00;99.90;;;;;;4972994;28;20478;-63
2021/09/09 03:57:20;;;;;;;14.10;12.90;;;17.00;99.90;;;;;;4972977;28;20188;-63
2021/09/09 03:59:46;;;;;;;13.43;11.50;;;17.00;99.90;;;;;;4971663;28;20732;-63
2021/09/09 04:02:11;;;;;;;14.50;13.40;;;17.10;99.90;;;;;;4972517;28;20180;-63
2021/09/09 04:04:37;;;;;;;12.30;11.27;;;17.00;99.90;;;;;;4972755;28;20458;-63
2021/09/09 04:07:02;;;;;;;12.70;11.60;;;17.00;99.90;;;;;;4972352;28;20208;-63
2021/09/09 04:09:28;;;;;;;12.47;11.17;;;17.00;99.90;;;;;;4972549;28;20223;-63
2021/09/09 04:11:53;;;;;;;13.50;12.40;;;16.90;99.90;;;;;;4971974;28;20267;-63
2021/09/09 04:14:19;;;;;;;13.77;12.47;;;16.80;99.90;;;;;;4972730;28;20184;-63
2021/09/09 04:16:45;;;;;;;12.80;11.50;;;16.70;99.90;;;;;;4972806;28;20177;-63
2021/09/09 04:19:11;;;;;;;12.57;11.33;;;16.70;99.90;;;;;;4972803;28;20310;-64
2021/09/09 04:21:36;;;;;;;12.87;11.70;;;16.70;99.90;;;;;;4972907;28;20463;-64
2021/09/09 04:24:02;;;;;;;12.50;11.30;;;16.80;99.90;;;;;;4976564;28;20207;-63
2021/09/09 04:26:27;;;;;;;12.93;11.73;;;16.90;99.90;;;;;;4976271;28;20192;-63
2021/09/09 04:28:53;;;;;;;12.40;11.20;;;16.90;99.90;;;;;;4976329;28;20200;-64
2021/09/09 04:31:18;;;;;;;13.67;12.57;;;17.00;99.90;;;;;;4975660;28;20635;-63
2021/09/09 04:33:44;;;;;;;13.20;12.20;;;17.00;99.90;;;;;;4976050;28;20204;-64
2021/09/09 04:36:09;;;;;;;12.83;11.80;;;17.00;99.90;;;;;;4975798;28;20626;-63
2021/09/09 04:38:35;;;;;;;12.93;11.70;;;17.00;99.90;;;;;;4975690;28;20259;-64
2021/09/09 04:41:01;;;;;;;13.30;11.93;;;17.10;99.90;;;;;;4975818;28;20177;-63
2021/09/09 04:43:26;;;;;;;12.33;11.33;;;17.10;99.90;;;;;;4975730;28;20188;-63
2021/09/09 04:45:52;;;;;;;12.63;11.30;;;17.00;99.90;;;;;;4975689;28;20180;-64
2021/09/09 04:48:17;;;;;;;12.20;11.20;;;17.00;99.90;;;;;;4975444;28;20211;-64
2021/09/09 04:50:43;;;;;;;14.37;13.07;;;16.90;99.90;;;;;;4975145;28;20200;-64
2021/09/09 04:53:08;;;;;;;14.53;13.23;;;16.90;99.90;;;;;;4975825;28;20212;-64
2021/09/09 04:55:34;;;;;;;13.03;11.93;;;16.90;99.90;;;;;;4975689;28;20172;-64
2021/09/09 04:57:59;;;;;;;14.77;13.37;;;16.90;99.90;;;;;;4975769;28;20262;-64
2021/09/09 05:00:25;;;;;;;13.23;12.23;;;16.90;99.90;;;;;;4975328;28;20191;-64
2021/09/09 05:02:51;;;;;;;12.07;10.97;;;16.90;99.90;;;;;;4975673;28;20184;-64
2021/09/09 05:05:16;;;;;;;13.33;12.13;;;17.00;99.90;;;;;;4975083;28;20246;-64
2021/09/09 05:07:42;;;;;;;13.40;12.13;;;17.00;99.90;;;;;;4975214;28;20226;-64
2021/09/09 05:10:08;;;;;;;13.93;12.63;;;17.00;99.90;;;;;;4975159;28;20192;-64
2021/09/09 05:12:34;;;;;;;12.70;11.60;;;17.00;99.90;;;;;;4975643;28;20475;-64
2021/09/09 05:14:59;;;;;;;13.20;12.10;;;17.00;99.90;;;;;;4975110;28;20814;-64
2021/09/09 05:17:25;;;;;;;13.10;12.00;;;17.00;99.90;;;;;;4974339;28;20184;-64
2021/09/09 05:19:50;;;;;;;13.47;12.17;;;17.00;99.90;;;;;;4975064;28;20232;-64
2021/09/09 05:22:16;;;;;;;12.07;11.03;;;17.10;99.90;;;;;;4975034;28;20184;-64
2021/09/09 05:24:41;;;;;;;12.90;11.67;;;17.10;99.90;;;;;;4975342;28;20184;-64
2021/09/09 05:27:07;;;;;;;14.93;13.63;;;17.10;99.90;;;;;;4975194;28;20231;-64
2021/09/09 05:29:33;;;;;;;12.80;11.70;;;17.20;99.90;;;;;;4974242;28;20204;-64
2021/09/09 05:31:59;;;;;;;11.43;10.43;;;17.30;99.90;;;;;;4974902;28;20195;-64
2021/09/09 05:34:24;;;;;;;12.73;11.63;;;17.40;99.90;;;;;;4975061;28;20423;-64
2021/09/09 05:36:50;;;;;;;13.70;12.50;;;17.50;99.90;;;;;;4975068;28;20211;-64
2021/09/09 05:39:15;;;;;;;13.50;12.43;;;17.60;99.90;;;;;;4974822;28;20272;-64
2021/09/09 05:41:41;;;;;;;13.47;10.80;;;17.80;99.90;;;;;;4975165;28;20188;-64
2021/09/09 05:44:06;;;;;;;15.70;14.13;;;17.90;99.90;;;;;;4975073;28;20180;-64
2021/09/09 05:46:32;;;;;;;14.27;12.77;;;18.10;99.90;;;;;;4974936;28;20267;-64
2021/09/09 05:48:58;;;;;;;14.23;12.70;;;18.40;99.90;;;;;;4974567;28;20216;-64
2021/09/09 05:51:23;;;;;;;14.57;13.03;;;18.50;99.90;;;;;;4974816;28;20172;-64
2021/09/09 05:53:49;;;;;;;13.87;12.57;;;18.60;99.90;;;;;;4974873;28;20694;-64
2021/09/09 05:56:15;;;;;;;13.20;11.87;;;18.90;99.90;;;;;;4974713;28;20319;-64
2021/09/09 05:58:40;;;;;;;14.07;12.93;;;19.10;99.90;;;;;;4974170;28;20200;-64
2021/09/09 06:01:06;;;;;;;14.43;12.57;;;19.20;99.90;;;;;;4974314;28;20924;-64
2021/09/09 06:03:33;;;;;;;12.57;11.47;;;19.30;99.90;;;;;;4974741;28;20168;-63
2021/09/09 06:06:04;;;;;;;13.80;12.13;;;19.40;99.90;;;;;;4974507;28;20419;-64
2021/09/09 06:08:34;;;;;;;15.57;14.07;;;19.40;99.90;;;;;;4974158;28;20452;-66
2021/09/09 06:10:59;;;;;;;14.23;12.83;;;19.40;99.90;;;;;;4975216;28;20450;-64
2021/09/09 06:13:25;;;;;;;13.57;12.47;;;19.40;99.90;;;;;;4993949;28;20814;-63
2021/09/09 06:15:50;;;;;;;13.60;12.17;;;19.50;99.90;;;;;;4992024;28;20179;-64
2021/09/09 06:18:16;;;;;;;14.37;12.73;;;19.60;99.90;;;;;;4973748;28;20701;-64
2021/09/09 06:20:41;;;;;;;12.83;11.87;;;19.80;99.90;;;;;;4974094;28;20646;-64
2021/09/09 06:23:07;;;;;;;16.57;11.73;;;19.90;99.90;;;;;;4974305;28;20184;-64
2021/09/09 06:25:32;;;;;;;12.87;11.73;;;19.80;99.90;;;;;;4974141;28;20176;-64
2021/09/09 06:27:58;;;;;;;14.03;12.70;;;19.90;99.90;;;;;;4973638;28;20291;-64
2021/09/09 06:30:23;;;;;;;12.57;11.47;;;19.90;99.90;;;;;;4973327;28;20534;-64
2021/09/09 06:32:49;;;;;;;12.63;11.23;;;20.00;99.90;;;;;;4973938;28;20176;-64
2021/09/09 06:35:14;;;;;;;12.70;11.60;;;20.00;99.90;;;;;;4974084;28;20172;-64
2021/09/09 06:37:40;;;;;;;12.53;11.20;;;20.20;99.90;;;;;;4974041;28;20263;-64
2021/09/09 06:40:07;;;;;;;13.30;12.00;;;20.40;99.90;;;;;;4972323;28;20280;-64
2021/09/09 06:42:32;;;;;;;12.43;11.10;;;20.60;99.90;;;;;;4974007;28;20177;-64
2021/09/09 06:44:57;;;;;;;12.40;11.13;;;20.80;99.90;;;;;;4973455;28;20438;-64
2021/09/09 06:47:23;;;;;;;13.33;12.07;;;20.80;99.90;;;;;;4973799;28;20195;-64
2021/09/09 06:49:49;;;;;;;11.97;10.33;;;20.90;99.90;;;;;;4973444;28;20203;-64
2021/09/09 06:52:15;;;;;;;14.80;13.30;;;21.20;99.90;;;;;;4973923;28;20164;-64
2021/09/09 06:54:41;;;;;;;13.43;12.10;;;21.60;99.90;;;;;;4973772;28;20184;-64
2021/09/09 06:57:07;;;;;;;16.87;15.00;;;22.10;99.90;;;;;;4973661;28;20514;-63
2021/09/09 06:59:33;;;;;;;18.87;16.90;;;22.60;99.90;;;;;;4973364;28;20631;-64
2021/09/09 07:01:58;;;;;;;21.87;19.93;;;23.10;99.90;;;;;;4973658;28;20191;-64
2021/09/09 07:04:23;;;;;;;16.47;14.87;;;23.50;99.90;;;;;;4973573;28;20646;-64
2021/09/09 07:06:49;;;;;;;11.83;10.73;;;23.80;99.90;;;;;;4973567;28;20204;-63
2021/09/09 07:09:14;;;;;;;11.07;9.97;;;23.70;99.90;;;;;;4973233;28;20211;-64
2021/09/09 07:11:40;;;;;;;11.03;9.97;;;23.30;99.90;;;;;;4973531;28;20169;-64
2021/09/09 07:14:05;;;;;;;10.53;9.63;;;23.40;99.90;;;;;;4973391;28;20251;-63
2021/09/09 07:16:31;;;;;;;12.33;11.33;;;23.40;99.90;;;;;;4973094;28;20168;-64
2021/09/09 07:18:56;;;;;;;10.67;9.77;;;23.60;99.90;;;;;;4972867;28;20267;-64
2021/09/09 07:21:22;;;;;;;10.67;9.63;;;23.80;99.90;;;;;;4973366;28;20223;-64
2021/09/09 07:23:48;;;;;;;13.77;11.40;;;23.80;99.90;;;;;;4973298;28;20183;-64
2021/09/09 07:26:13;;;;;;;11.13;10.23;;;24.00;99.90;;;;;;4973293;28;20227;-65
2021/09/09 07:28:39;;;;;;;10.03;9.13;;;23.90;99.90;;;;;;4973030;28;20192;-65
2021/09/09 07:31:05;;;;;;;10.57;9.57;;;23.80;99.90;;;;;;4973343;28;20709;-66
2021/09/09 07:33:30;;;;;;;10.80;9.63;;;23.80;99.90;;;;;;4973302;28;20172;-66
2021/09/09 07:35:56;;;;;;;11.63;10.73;;;24.00;99.90;;;;;;4973330;28;20764;-65
2021/09/09 07:38:21;;;;;;;10.40;9.50;;;24.10;99.90;;;;;;4973019;28;20195;-66
2021/09/09 07:40:47;;;;;;;11.53;9.23;;;24.10;99.90;;;;;;4973182;28;20599;-66
2021/09/09 07:43:12;;;;;;;11.47;10.37;;;24.30;99.90;;;;;;4973282;28;20182;-66
2021/09/09 07:45:38;;;;;;;10.40;9.50;;;24.70;99.90;;;;;;4973087;28;20180;-66
2021/09/09 07:48:04;;;;;;;9.33;8.50;;;25.00;99.90;;;;;;4972835;28;20192;-66
2021/09/09 07:50:29;;;;;;;10.00;9.20;;;25.40;99.90;;;;;;4972931;28;20203;-67
2021/09/09 07:52:55;;;;;;;10.37;9.30;;;25.60;99.90;;;;;;4973283;28;20176;-64
2021/09/09 07:55:20;;;;;;;10.90;9.90;;;25.80;99.90;;;;;;4973151;28;20646;-64
2021/09/09 07:57:46;;;;;;;11.13;10.20;;;26.20;99.90;;;;;;4975128;28;20596;-63
2021/09/09 08:00:13;;;;;;;10.73;9.53;;;25.70;99.90;;;;;;4976259;28;20192;-64
2021/09/09 08:02:38;;;;;;;10.90;9.70;;;25.30;99.90;;;;;;4976758;28;20180;-64
2021/09/09 08:05:04;;;;;;;9.77;9.07;;;24.90;99.90;;;;;;4976919;28;20767;-64
2021/09/09 08:07:30;;;;;;;10.20;9.20;;;24.90;99.90;;;;;;4976678;28;20207;-65
2021/09/09 08:09:56;;;;;;;9.70;8.80;;;24.90;99.90;;;;;;4976512;28;20494;-65
2021/09/09 08:12:21;;;;;;;10.17;9.33;;;24.90;99.90;;;;;;4976821;28;20173;-64
2021/09/09 08:14:47;;;;;;;10.73;9.77;;;24.80;99.90;;;;;;4977214;28;20199;-65
2021/09/09 08:17:14;;;;;;;10.97;9.97;;;25.10;99.90;;;;;;4976533;28;20172;-64
2021/09/09 08:19:39;;;;;;;11.57;10.57;;;25.20;99.90;;;;;;4976123;28;20230;-65
2021/09/09 08:22:05;;;;;;;10.43;9.53;;;25.20;99.90;;;;;;4976531;28;20415;-65
2021/09/09 08:24:30;;;;;;;9.77;9.00;;;25.00;99.90;;;;;;4976531;28;20168;-64
2021/09/09 08:26:56;;;;;;;18.50;9.50;;;24.90;99.90;;;;;;4976407;28;20195;-65
2021/09/09 08:29:21;;;;;;;10.47;9.63;;;24.40;99.90;;;;;;4976123;28;20608;-64
2021/09/09 08:31:47;;;;;;;9.93;9.03;;;24.20;99.90;;;;;;4976272;28;20189;-65
2021/09/09 08:34:12;;;;;;;10.10;9.23;;;24.00;99.90;;;;;;4976375;28;20177;-65
2021/09/09 08:36:38;;;;;;;9.40;8.60;;;24.20;99.90;;;;;;4976265;28;20184;-65
2021/09/09 08:39:04;;;;;;;9.20;8.50;;;25.20;99.90;;;;;;4975939;28;20196;-65
2021/09/09 08:41:30;;;;;;;10.27;8.87;;;26.30;99.90;;;;;;4976254;28;20231;-66
2021/09/09 08:43:56;;;;;;;11.83;8.57;;;27.00;99.80;;;;;;4976640;28;20202;-65
2021/09/09 08:46:23;;;;;;;9.27;8.47;;;27.20;99.40;;;;;;4975855;28;20894;-65
2021/09/09 08:48:49;;;;;;;9.23;8.53;;;27.00;98.90;;;;;;4975777;28;20577;-65
2021/09/09 08:51:16;;;;;;;9.37;8.53;;;26.60;99.60;;;;;;4976006;28;20416;-65
2021/09/09 08:53:42;;;;;;;10.73;8.30;;;26.60;99.90;;;;;;4976057;28;20419;-65
2021/09/09 08:56:08;;;;;;;9.07;8.37;;;26.70;99.90;;;;;;4975985;28;20427;-65
2021/09/09 08:58:36;;;;;;;9.93;9.00;;;26.30;99.90;;;;;;4975593;28;21014;-65
2021/09/09 09:01:17;;;;;;;11.83;9.73;;;26.40;99.90;;;;;;4975761;28;20175;-64
2021/09/09 09:03:53;;;;;;;10.10;9.30;;;26.80;99.90;;;;;;4975858;28;20925;-65
2021/09/09 09:06:21;;;;;;;10.07;9.27;;;27.30;99.60;;;;;;4975754;28;20481;-65
2021/09/09 09:08:51;;;;;;;9.53;8.73;;;28.00;98.00;;;;;;4974985;28;20435;-65
2021/09/09 09:11:29;;;;;;;9.30;8.47;;;28.90;97.30;;;;;;4975602;28;20408;-65
2021/09/09 09:13:56;;;;;;;8.77;8.13;;;29.50;95.50;;;;;;4975516;28;20419;-65
2021/09/09 09:16:23;;;;;;;9.73;8.93;;;29.20;95.90;;;;;;4975591;28;20944;-66
2021/09/09 09:18:49;;;;;;;8.63;7.73;;;29.90;94.40;;;;;;4975125;28;20493;-65
2021/09/09 09:21:16;;;;;;;12.20;9.67;;;30.30;92.90;;;;;;4975473;28;20415;-65
2021/09/09 09:23:55;;;;;;;9.30;8.70;;;29.50;93.40;;;;;;4975471;28;20165;-65
2021/09/09 09:26:20;;;;;;;10.10;9.20;;;29.10;94.70;;;;;;4975354;28;20462;-65
2021/09/09 09:28:49;;;;;;;9.10;8.37;;;29.80;94.10;;;;;;4975072;28;20474;-65
2021/09/09 09:31:22;;;;;;;9.43;8.63;;;29.30;93.60;;;;;;4975320;28;20169;-65
2021/09/09 09:33:51;;;;;;;9.70;8.77;;;28.60;94.50;;;;;;4975339;28;20415;-65
2021/09/09 09:36:25;;;;;;;10.07;9.27;;;27.90;95.40;;;;;;4975146;28;20419;-65
2021/09/09 09:39:06;;;;;;;9.87;9.03;;;27.30;95.90;;;;;;4974961;28;20465;-65
2021/09/09 09:41:32;;;;;;;11.80;8.47;;;26.90;96.80;;;;;;4975158;28;20416;-65
2021/09/09 09:44:04;;;;;;;11.70;8.87;;;27.80;96.60;;;;;;4975110;28;20423;-66
2021/09/09 09:46:38;;;;;;;10.83;8.97;;;29.80;94.30;;;;;;4974984;28;20180;-66
2021/09/09 09:49:34;;;;;;;9.33;8.43;;;31.00;92.10;;;;;;4974622;28;20497;-65
2021/09/09 09:52:01;;;;;;;9.90;9.20;;;31.80;90.60;;;;;;4978393;28;20800;-65
2021/09/09 09:54:28;;;;;;;8.53;7.83;;;33.00;85.50;;;;;;4974950;28;20824;-66
2021/09/09 09:56:55;;;;;;;9.80;8.10;;;33.70;81.60;;;;;;4974863;28;20459;-66
2021/09/09 09:59:21;;;;;;;8.43;7.83;;;34.20;76.90;;;;;;4974451;28;20907;-65
2021/09/09 10:01:48;;;;;;;8.83;7.97;;;34.90;74.50;;;;;;4974710;28;20416;-66
2021/09/09 10:04:19;;;;;;;7.63;6.93;;;34.30;73.60;;;;;;4974679;28;20424;-65
2021/09/09 10:06:47;;;;;;;8.83;7.10;;;33.50;72.70;;;;;;4974634;28;20459;-65
2021/09/09 10:09:13;;;;;;;7.90;7.10;;;33.30;73.00;;;;;;4974313;28;21019;-65
2021/09/09 10:11:39;;;;;;;7.23;6.63;;;33.70;71.30;;;;;;4974443;28;20511;-65
2021/09/09 10:14:06;;;;;;;8.30;7.30;;;33.20;69.40;;;;;;4974489;28;20423;-65
2021/09/09 10:16:35;;;;;;;8.53;7.50;;;32.20;71.80;;;;;;4974668;28;20410;-65
2021/09/09 10:19:01;;;;;;;9.47;8.57;;;32.20;71.60;;;;;;4974111;28;20482;-65
2021/09/09 10:21:44;;;;;;;8.90;8.10;;;31.70;75.00;;;;;;4973871;28;20910;-64
2021/09/09 10:24:28;;;;;;;8.70;7.90;;;30.80;76.20;;;;;;4974363;28;20596;-65
2021/09/09 10:27:23;;;;;;;7.27;6.77;;;30.80;77.00;;;;;;4974270;28;20554;-65
2021/09/09 10:30:00;;;;;;;8.03;7.43;;;31.20;75.50;;;;;;4973912;28;20466;-64
2021/09/09 10:32:31;;;;;;;8.30;7.60;;;31.00;75.40;;;;;;4974200;28;20833;-65
2021/09/09 10:35:19;;;;;;;7.53;7.03;;;31.70;74.10;;;;;;4974156;28;20514;-64
2021/09/09 10:37:49;;;;;;;7.80;7.20;;;32.70;73.10;;;;;;4974275;28;20419;-65
2021/09/09 10:40:35;;;;;;;7.43;6.93;;;33.50;70.70;;;;;;4973861;28;20893;-65
2021/09/09 10:43:34;;;;;;;6.87;6.27;;;33.90;68.70;;;;;;4973904;28;20455;-65
2021/09/09 10:46:09;;;;;;;8.00;7.30;;;34.30;67.40;;;;;;4973914;28;20434;-65
2021/09/09 10:48:35;;;;;;;7.83;7.23;;;35.30;64.00;;;;;;4973475;28;20566;-65
2021/09/09 10:51:01;;;;;;;6.90;6.40;;;35.80;61.80;;;;;;4973923;28;20447;-65
2021/09/09 10:53:37;;;;;;;6.87;6.47;;;35.50;60.70;;;;;;4973687;28;20999;-66
2021/09/09 10:56:07;;;;;;;6.93;6.43;;;35.70;61.20;;;;;;4973784;28;20214;-65
2021/09/09 10:58:32;;;;;;;7.27;6.77;;;34.60;63.10;;;;;;4973381;28;20440;-65
2021/09/09 11:01:02;;;;;;;6.73;6.30;;;35.30;61.20;;;;;;4973688;28;20531;-65
2021/09/09 11:03:45;;;;;;;6.90;6.30;;;35.20;60.00;;;;;;4973673;28;20745;-65
2021/09/09 11:06:14;;;;;;;6.77;6.27;;;34.60;61.30;;;;;;4973568;28;20913;-65
2021/09/09 11:08:41;;;;;;;8.77;8.17;;;35.10;60.90;;;;;;4973205;28;20443;-65
2021/09/09 11:11:13;;;;;;;6.87;6.37;;;35.40;60.80;;;;;;4973569;28;20427;-65
2021/09/09 11:13:40;;;;;;;6.60;6.10;;;35.60;59.40;;;;;;4973563;28;20920;-65
2021/09/09 11:16:23;;;;;;;5.70;5.30;;;35.80;59.10;;;;;;4973452;28;20416;-65
2021/09/09 11:18:49;;;;;;;6.77;6.03;;;36.60;57.90;;;;;;4972925;28;20479;-65
2021/09/09 11:21:21;;;;;;;6.10;5.70;;;37.40;56.40;;;;;;4973541;28;20442;-65
2021/09/09 11:23:49;;;;;;;7.70;6.43;;;37.60;55.70;;;;;;4973383;28;20482;-65
2021/09/09 11:26:20;;;;;;;7.10;6.60;;;38.00;54.90;;;;;;4973812;28;20435;-65
2021/09/09 11:28:48;;;;;;;7.03;6.53;;;37.00;54.90;;;;;;4972924;28;20988;-65
2021/09/09 11:31:16;;;;;;;6.83;6.40;;;36.40;54.90;;;;;;4973134;28;20793;-66
2021/09/09 11:34:01;;;;;;;6.57;5.97;;;35.80;56.20;;;;;;4973305;28;20465;-65
2021/09/09 11:36:30;;;;;;;6.03;5.63;;;36.60;54.80;;;;;;4973597;28;20427;-65
2021/09/09 11:38:58;;;;;;;7.10;6.40;;;37.20;53.40;;;;;;4972947;28;20428;-65
2021/09/09 11:41:28;;;;;;;6.37;5.87;;;38.70;52.00;;;;;;4973170;28;20779;-65
2021/09/09 11:43:57;;;;;;;6.43;5.80;;;39.70;50.20;;;;;;4973199;28;20438;-65
2021/09/09 11:46:24;;;;;;;5.97;5.57;;;39.60;50.20;;;;;;4973017;28;20439;-65
2021/09/09 11:48:54;;;;;;;6.33;5.83;;;38.40;49.80;;;;;;4972750;28;20455;-65
2021/09/09 11:51:32;;;;;;;7.93;5.30;;;37.20;49.90;;;;;;4973071;28;20424;-65
2021/09/09 11:53:58;;;;;;;6.50;6.10;;;37.20;51.30;;;;;;4973035;28;20423;-65
2021/09/09 11:56:24;;;;;;;7.23;6.63;;;36.70;51.70;;;;;;4973062;28;20842;-64
2021/09/09 11:58:49;;;;;;;6.97;6.33;;;34.90;52.90;;;;;;4972668;28;20801;-65
2021/09/09 12:01:15;;;;;;;8.23;7.53;;;33.60;54.80;;;;;;4972921;28;20303;-65
2021/09/09 12:03:44;;;;;;;7.43;6.97;;;32.20;57.00;;;;;;4973020;28;20538;-65
2021/09/09 12:06:10;;;;;;;7.43;6.87;;;32.30;57.80;;;;;;4972926;28;20187;-65
2021/09/09 12:08:39;;;;;;;8.13;6.73;;;33.20;56.40;;;;;;4972460;28;20467;-65
2021/09/09 12:11:12;;;;;;;6.80;6.30;;;33.30;56.40;;;;;;4972955;28;20424;-65
2021/09/09 12:13:40;;;;;;;6.93;6.43;;;34.90;55.00;;;;;;4973151;28;20424;-65
2021/09/09 12:16:23;;;;;;;7.33;6.67;;;35.80;52.70;;;;;;4972816;28;20416;-64
2021/09/09 12:19:00;;;;;;;7.47;6.87;;;34.30;52.90;;;;;;4972246;28;20466;-65
2021/09/09 12:21:26;;;;;;;7.83;7.23;;;33.30;55.30;;;;;;4972884;28;20802;-64
2021/09/09 12:24:04;;;;;;;7.90;7.30;;;34.10;54.50;;;;;;4972774;28;20419;-65
2021/09/09 12:26:31;;;;;;;7.97;7.37;;;32.70;54.70;;;;;;4972767;28;20537;-65
2021/09/09 12:28:57;;;;;;;8.50;7.70;;;31.50;56.70;;;;;;4972490;28;20542;-64
2021/09/09 12:31:36;;;;;;;9.73;8.83;;;31.40;57.80;;;;;;4972572;28;20448;-64
2021/09/09 12:34:10;;;;;;;8.07;7.47;;;30.80;58.60;;;;;;4972705;28;20172;-64